Time,TemperatureF,DewpointF,PressureIn,WindDirection,WindDirectionDegrees,WindSpeedMPH,WindSpeedGustMPH,Humidity,HourlyPrecipIn,Conditions,Clouds,dailyrainin,SoftwareType,DateUTC
2013-04-28 00:04:00,45.7,44.0,30.09,North,5,6.0,-999.0,93,-99.99,,,0.01,weatherlink.com 1.10,2013-04-28 07:04:00,
2013-04-28 00:19:00,45.7,44.0,30.08,NNE,23,3.0,-999.0,93,-99.99,,,0.01,weatherlink.com 1.10,2013-04-28 07:19:00,
2013-04-28 00:34:00,45.6,44.0,30.08,NNE,32,5.0,-999.0,93,-99.99,,,0.01,weatherlink.com 1.10,2013-04-28 07:34:00,
2013-04-28 00:49:00,45.7,44.0,30.08,NNW,344,5.0,-999.0,93,-99.99,,,0.01,weatherlink.com 1.10,2013-04-28 07:49:00,
2013-04-28 01:04:00,45.7,44.0,30.08,NNE,19,5.0,-999.0,93,-99.99,,,0.00,weatherlink.com 1.10,2013-04-28 08:04:00,
2013-04-28 01:19:00,45.7,44.0,30.07,North,5,5.0,-999.0,93,-99.99,,,0.00,weatherlink.com 1.10,2013-04-28 08:19:00,
2013-04-28 01:34:00,45.6,44.0,30.07,NNE,17,5.0,-999.0,93,-99.99,,,0.00,weatherlink.com 1.10,2013-04-28 08:34:00,
2013-04-28 01:49:00,45.5,44.0,30.07,NNE,18,2.0,-999.0,93,-99.99,,,0.00,weatherlink.com 1.10,2013-04-28 08:49:00,
2013-04-28 02:04:00,45.4,44.0,30.07,NNE,23,4.0,-999.0,93,-99.99,,,0.00,weatherlink.com 1.10,2013-04-28 09:04:00,
2013-04-28 02:19:00,45.4,44.0,30.07,NNE,19,2.0,-999.0,93,-99.99,,,0.00,weatherlink.com 1.10,2013-04-28 09:19:00,
2013-04-28 02:34:00,45.4,44.0,30.07,NNE,24,3.0,-999.0,93,-99.99,,,0.00,weatherlink.com 1.10,2013-04-28 09:34:00,
2013-04-28 02:49:00,45.5,44.0,30.07,North,5,4.0,-999.0,93,-99.99,,,0.00,weatherlink.com 1.10,2013-04-28 09:49:00,
2013-04-28 03:04:00,45.4,44.0,30.06,NNE,26,3.0,-999.0,93,-99.99,,,0.00,weatherlink.com 1.10,2013-04-28 10:04:00,
2013-04-28 03:19:00,45.3,43.0,30.06,NNE,17,3.0,-999.0,93,-99.99,,,0.00,weatherlink.com 1.10,2013-04-28 10:19:00,
2013-04-28 03:34:00,45.1,43.0,30.06,NNE,23,5.0,-999.0,93,-99.99,,,0.00,weatherlink.com 1.10,2013-04-28 10:34:00,
2013-04-28 03:49:00,45.2,44.0,30.05,NNE,19,7.0,-999.0,94,-99.99,,,0.00,weatherlink.com 1.10,2013-04-28 10:49:00,
2013-04-28 04:04:00,45.4,44.0,30.05,NE,40,2.0,-999.0,94,-99.99,,,0.00,weatherlink.com 1.10,2013-04-28 11:04:00,
2013-04-28 04:19:00,45.4,44.0,30.05,NNE,26,7.0,-999.0,94,-99.99,,,0.00,weatherlink.com 1.10,2013-04-28 11:19:00,
2013-04-28 04:34:00,45.4,44.0,30.05,NNE,29,2.0,-999.0,94,-99.99,,,0.00,weatherlink.com 1.10,2013-04-28 11:34:00,
2013-04-28 04:49:00,45.2,44.0,30.05,North,355,4.0,-999.0,94,-99.99,,,0.00,weatherlink.com 1.10,2013-04-28 11:49:00,
2013-04-28 05:04:00,45.0,43.0,30.04,NNE,12,8.0,-999.0,94,-99.99,,,0.00,weatherlink.com 1.10,2013-04-28 12:04:00,
2013-04-28 05:19:00,45.0,43.0,30.04,NE,44,7.0,-999.0,94,-99.99,,,0.00,weatherlink.com 1.10,2013-04-28 12:19:00,
2013-04-28 05:34:00,44.7,43.0,30.04,North,355,4.0,-999.0,94,-99.99,,,0.00,weatherlink.com 1.10,2013-04-28 12:34:00,
2013-04-28 05:49:00,44.6,43.0,30.04,NNE,24,5.0,-999.0,94,-99.99,,,0.00,weatherlink.com 1.10,2013-04-28 12:49:00,
2013-04-28 06:04:00,44.6,43.0,30.03,NNE,26,5.0,-999.0,94,-99.99,,,0.00,weatherlink.com 1.10,2013-04-28 13:04:00,
2013-04-28 06:19:00,44.5,43.0,30.03,NNE,33,6.0,-999.0,94,-99.99,,,0.00,weatherlink.com 1.10,2013-04-28 13:19:00,
2013-04-28 06:34:00,44.8,43.0,30.03,NNE,16,4.0,-999.0,94,-99.99,,,0.01,weatherlink.com 1.10,2013-04-28 13:34:00,
2013-04-28 06:49:00,44.9,43.0,30.03,NNE,32,6.0,-999.0,94,-99.99,,,0.01,weatherlink.com 1.10,2013-04-28 13:49:00,
2013-04-28 07:04:00,44.9,43.0,30.03,NNE,28,6.0,-999.0,94,-99.99,,,0.01,weatherlink.com 1.10,2013-04-28 14:04:00,
2013-04-28 07:19:00,45.2,44.0,30.04,NE,38,4.0,-999.0,94,-99.99,,,0.01,weatherlink.com 1.10,2013-04-28 14:19:00,
2013-04-28 07:34:00,45.9,44.0,30.04,NNE,23,5.0,-999.0,94,-99.99,,,0.01,weatherlink.com 1.10,2013-04-28 14:34:00,
2013-04-28 07:48:00,46.5,45.0,30.04,North,5,7.0,-999.0,95,-99.99,,,0.01,weatherlink.com 1.10,2013-04-28 14:48:00,
2013-04-28 08:03:00,47.2,46.0,30.03,North,360,4.0,-999.0,94,-99.99,,,0.01,weatherlink.com 1.10,2013-04-28 15:03:00,
2013-04-28 08:18:00,47.9,46.0,30.03,NNW,330,6.0,-999.0,94,-99.99,,,0.01,weatherlink.com 1.10,2013-04-28 15:18:00,
2013-04-28 08:33:00,48.5,47.0,30.04,NE,35,5.0,-999.0,94,-99.99,,,0.01,weatherlink.com 1.10,2013-04-28 15:33:00,
2013-04-28 08:49:00,49.4,48.0,30.03,NW,317,8.0,-999.0,93,-99.99,,,0.01,weatherlink.com 1.10,2013-04-28 15:49:00,
2013-04-28 09:04:00,49.6,47.0,30.03,NNE,33,3.0,-999.0,90,-99.99,,,0.01,weatherlink.com 1.10,2013-04-28 16:04:00,
2013-04-28 09:19:00,50.6,48.0,30.03,North,11,10.0,-999.0,89,-99.99,,,0.01,weatherlink.com 1.10,2013-04-28 16:19:00,
2013-04-28 09:34:00,51.6,48.0,30.03,NNW,340,10.0,-999.0,88,-99.99,,,0.01,weatherlink.com 1.10,2013-04-28 16:34:00,
2013-04-28 09:49:00,52.5,49.0,30.02,North,5,6.0,-999.0,86,-99.99,,,0.01,weatherlink.com 1.10,2013-04-28 16:49:00,
2013-04-28 10:04:00,52.7,48.0,30.03,NW,322,14.0,-999.0,85,-99.99,,,0.01,weatherlink.com 1.10,2013-04-28 17:04:00,
2013-04-28 10:19:00,53.2,49.0,30.03,North,355,11.0,-999.0,84,-99.99,,,0.01,weatherlink.com 1.10,2013-04-28 17:19:00,
2013-04-28 10:34:00,53.1,48.0,30.03,NW,314,12.0,-999.0,84,-99.99,,,0.01,weatherlink.com 1.10,2013-04-28 17:34:00,
2013-04-28 10:49:00,53.5,49.0,30.03,NNE,12,8.0,-999.0,83,-99.99,,,0.01,weatherlink.com 1.10,2013-04-28 17:49:00,
2013-04-28 11:04:00,54.5,49.0,30.03,NW,322,12.0,-999.0,82,-99.99,,,0.01,weatherlink.com 1.10,2013-04-28 18:04:00,
2013-04-28 11:19:00,53.6,49.0,30.03,NNW,331,7.0,-999.0,83,-99.99,,,0.01,weatherlink.com 1.10,2013-04-28 18:19:00,
2013-04-28 11:34:00,53.7,49.0,30.03,NNW,347,15.0,-999.0,83,-99.99,,,0.01,weatherlink.com 1.10,2013-04-28 18:34:00,
2013-04-28 11:49:00,53.9,49.0,30.03,NNW,332,10.0,-999.0,82,-99.99,,,0.01,weatherlink.com 1.10,2013-04-28 18:49:00,
2013-04-28 12:04:00,54.2,49.0,30.03,NNW,346,9.0,-999.0,81,-99.99,,,0.01,weatherlink.com 1.10,2013-04-28 19:04:00,
2013-04-28 12:19:00,54.6,50.0,30.03,NE,46,12.0,-999.0,83,-99.99,,,0.01,weatherlink.com 1.10,2013-04-28 19:19:00,
2013-04-28 12:34:00,55.5,50.0,30.02,NW,321,15.0,-999.0,82,-99.99,,,0.01,weatherlink.com 1.10,2013-04-28 19:34:00,
2013-04-28 12:49:00,55.9,49.0,30.02,NW,315,18.0,-999.0,78,-99.99,,,0.01,weatherlink.com 1.10,2013-04-28 19:49:00,
2013-04-28 13:04:00,56.3,50.0,30.01,NNW,340,12.0,-999.0,78,-99.99,,,0.01,weatherlink.com 1.10,2013-04-28 20:04:00,
2013-04-28 13:19:00,55.3,49.0,30.01,NNW,338,11.0,-999.0,79,-99.99,,,0.01,weatherlink.com 1.10,2013-04-28 20:19:00,
2013-04-28 13:34:00,56.0,50.0,30.01,NW,324,14.0,-999.0,79,-99.99,,,0.01,weatherlink.com 1.10,2013-04-28 20:34:00,
2013-04-28 13:49:00,56.3,49.0,30.00,NNW,329,16.0,-999.0,76,-99.99,,,0.01,weatherlink.com 1.10,2013-04-28 20:49:00,
2013-04-28 14:04:00,57.1,49.0,30.00,North,355,5.0,-999.0,75,-99.99,,,0.01,weatherlink.com 1.10,2013-04-28 21:04:00,
2013-04-28 14:19:00,57.7,49.0,29.99,North,9,14.0,-999.0,74,-99.99,,,0.01,weatherlink.com 1.10,2013-04-28 21:19:00,
2013-04-28 14:34:00,57.8,49.0,29.98,NNW,339,12.0,-999.0,73,-99.99,,,0.01,weatherlink.com 1.10,2013-04-28 21:34:00,
2013-04-28 14:48:00,57.6,49.0,29.98,NW,318,17.0,-999.0,73,-99.99,,,0.01,weatherlink.com 1.10,2013-04-28 21:48:00,
2013-04-28 15:03:00,57.6,49.0,29.98,NNE,18,15.0,-999.0,72,-99.99,,,0.01,weatherlink.com 1.10,2013-04-28 22:03:00,
2013-04-28 15:18:00,57.7,49.0,29.97,NNW,333,12.0,-999.0,74,-99.99,,,0.01,weatherlink.com 1.10,2013-04-28 22:18:00,
2013-04-28 15:33:00,59.9,50.0,29.97,NNW,330,12.0,-999.0,69,-99.99,,,0.01,weatherlink.com 1.10,2013-04-28 22:33:00,
2013-04-28 15:49:00,60.8,50.0,29.96,North,350,15.0,-999.0,67,-99.99,,,0.01,weatherlink.com 1.10,2013-04-28 22:49:00,
2013-04-28 16:04:00,62.1,50.0,29.96,NE,42,10.0,-999.0,65,-99.99,,,0.01,weatherlink.com 1.10,2013-04-28 23:04:00,
2013-04-28 16:19:00,62.5,50.0,29.95,NNW,329,9.0,-999.0,65,-99.99,,,0.01,weatherlink.com 1.10,2013-04-28 23:19:00,
2013-04-28 16:34:00,62.5,50.0,29.94,NW,325,12.0,-999.0,64,-99.99,,,0.01,weatherlink.com 1.10,2013-04-28 23:34:00,
2013-04-28 16:53:00,62.1,50.0,29.94,North,10,10.0,-999.0,64,-99.99,,,0.01,weatherlink.com 1.10,2013-04-28 23:53:00,
2013-04-28 17:04:00,62.5,50.0,29.94,North,355,11.0,-999.0,64,-99.99,,,0.01,weatherlink.com 1.10,2013-04-29 00:04:00,
2013-04-28 17:19:00,61.8,50.0,29.94,North,5,15.0,-999.0,65,-99.99,,,0.01,weatherlink.com 1.10,2013-04-29 00:19:00,
2013-04-28 17:34:00,61.4,50.0,29.94,NNE,20,9.0,-999.0,66,-99.99,,,0.01,weatherlink.com 1.10,2013-04-29 00:34:00,
2013-04-28 17:49:00,59.5,49.0,29.93,NW,319,15.0,-999.0,69,-99.99,,,0.01,weatherlink.com 1.10,2013-04-29 00:49:00,
2013-04-28 18:05:00,58.5,49.0,29.93,North,355,9.0,-999.0,71,-99.99,,,0.01,weatherlink.com 1.10,2013-04-29 01:05:00,
2013-04-28 18:19:00,58.8,49.0,29.93,NNE,25,11.0,-999.0,70,-99.99,,,0.01,weatherlink.com 1.10,2013-04-29 01:19:00,
2013-04-28 18:34:00,59.3,49.0,29.93,North,5,7.0,-999.0,69,-99.99,,,0.01,weatherlink.com 1.10,2013-04-29 01:34:00,
2013-04-28 18:49:00,58.5,49.0,29.92,North,11,9.0,-999.0,70,-99.99,,,0.01,weatherlink.com 1.10,2013-04-29 01:49:00,
2013-04-28 19:04:00,57.4,48.0,29.92,North,355,11.0,-999.0,72,-99.99,,,0.01,weatherlink.com 1.10,2013-04-29 02:04:00,
2013-04-28 19:19:00,56.5,48.0,29.91,NNW,327,9.0,-999.0,73,-99.99,,,0.01,weatherlink.com 1.10,2013-04-29 02:19:00,
2013-04-28 19:35:00,55.8,48.0,29.91,NNW,338,8.0,-999.0,74,-99.99,,,0.01,weatherlink.com 1.10,2013-04-29 02:35:00,
2013-04-28 19:49:00,55.5,48.0,29.91,NW,317,9.0,-999.0,75,-99.99,,,0.01,weatherlink.com 1.10,2013-04-29 02:49:00,
2013-04-28 20:04:00,54.5,47.0,29.91,NNE,13,3.0,-999.0,76,-99.99,,,0.01,weatherlink.com 1.10,2013-04-29 03:04:00,
2013-04-28 20:19:00,53.9,47.0,29.92,NNE,21,3.0,-999.0,76,-99.99,,,0.01,weatherlink.com 1.10,2013-04-29 03:19:00,
2013-04-28 20:34:00,53.2,46.0,29.91,North,11,4.0,-999.0,77,-99.99,,,0.01,weatherlink.com 1.10,2013-04-29 03:34:00,
2013-04-28 20:49:00,52.9,46.0,29.91,North,350,1.0,-999.0,77,-99.99,,,0.01,weatherlink.com 1.10,2013-04-29 03:49:00,
2013-04-28 21:04:00,52.5,46.0,29.92,NNW,344,6.0,-999.0,79,-99.99,,,0.01,weatherlink.com 1.10,2013-04-29 04:04:00,
2013-04-28 21:19:00,52.7,46.0,29.92,NNW,333,8.0,-999.0,78,-99.99,,,0.01,weatherlink.com 1.10,2013-04-29 04:19:00,
2013-04-28 21:35:00,52.5,46.0,29.92,NW,318,9.0,-999.0,78,-99.99,,,0.01,weatherlink.com 1.10,2013-04-29 04:35:00,
2013-04-28 21:49:00,52.7,46.0,29.92,NW,323,11.0,-999.0,78,-99.99,,,0.01,weatherlink.com 1.10,2013-04-29 04:49:00,
2013-04-28 22:04:00,52.9,46.0,29.92,NW,322,8.0,-999.0,77,-99.99,,,0.01,weatherlink.com 1.10,2013-04-29 05:04:00,
2013-04-28 22:19:00,52.5,45.0,29.92,NNE,25,4.0,-999.0,77,-99.99,,,0.01,weatherlink.com 1.10,2013-04-29 05:19:00,
2013-04-28 22:34:00,51.7,45.0,29.92,North,5,2.0,-999.0,78,-99.99,,,0.01,weatherlink.com 1.10,2013-04-29 05:34:00,
2013-04-28 22:49:00,51.3,45.0,29.93,NNW,331,9.0,-999.0,79,-99.99,,,0.01,weatherlink.com 1.10,2013-04-29 05:49:00,
2013-04-28 23:04:00,51.3,45.0,29.92,NNE,19,5.0,-999.0,79,-99.99,,,0.01,weatherlink.com 1.10,2013-04-29 06:04:00,
2013-04-28 23:19:00,51.5,45.0,29.92,NNW,343,3.0,-999.0,79,-99.99,,,0.01,weatherlink.com 1.10,2013-04-29 06:19:00,
2013-04-28 23:34:00,52.2,45.0,29.92,NW,319,9.0,-999.0,77,-99.99,,,0.01,weatherlink.com 1.10,2013-04-29 06:34:00,
2013-04-28 23:49:00,52.6,45.0,29.92,North,360,5.0,-999.0,76,-99.99,,,0.01,weatherlink.com 1.10,2013-04-29 06:49:00,